createdAt,value
2022-07-26T00:00:41.824Z,21.39
2022-07-26T00:03:48.906Z,21.36
2022-07-26T00:06:55.646Z,21.37
2022-07-26T00:10:01.480Z,21.34
2022-07-26T00:13:07.408Z,21.43
2022-07-26T00:16:13.778Z,21.45
2022-07-26T00:19:19.522Z,21.49
2022-07-26T00:22:40.645Z,21.49
2022-07-26T00:25:47.404Z,21.55
2022-07-26T00:28:53.390Z,21.56
2022-07-26T00:31:59.383Z,21.64
2022-07-26T00:35:07.628Z,21.68
2022-07-26T00:38:13.706Z,21.76
2022-07-26T00:41:20.187Z,21.83
2022-07-26T00:44:25.949Z,21.80
2022-07-26T00:47:31.874Z,21.79
2022-07-26T00:50:37.764Z,21.80
2022-07-26T00:53:46.322Z,21.77
2022-07-26T00:56:55.182Z,21.74
2022-07-26T01:00:02.083Z,21.72
2022-07-26T01:03:08.147Z,21.73
2022-07-26T01:06:13.936Z,21.77
2022-07-26T01:09:19.880Z,21.76
2022-07-26T01:12:25.676Z,21.71
2022-07-26T01:15:31.138Z,21.71
2022-07-26T01:18:37.193Z,21.68
2022-07-26T01:21:43.008Z,21.64
2022-07-26T01:24:48.793Z,21.63
2022-07-26T01:27:55.037Z,21.64
2022-07-26T01:31:00.966Z,21.66
2022-07-26T01:34:07.712Z,21.66
2022-07-26T01:37:13.835Z,21.68
2022-07-26T01:40:19.964Z,21.68
2022-07-26T01:43:25.642Z,21.71
2022-07-26T01:46:33.881Z,21.74
2022-07-26T01:49:39.821Z,21.74
2022-07-26T01:52:45.904Z,21.75
2022-07-26T01:55:51.690Z,21.75
2022-07-26T01:58:57.694Z,21.75
2022-07-26T02:02:05.614Z,21.74
2022-07-26T02:05:11.860Z,21.77
2022-07-26T02:08:17.791Z,21.80
2022-07-26T02:11:27.287Z,21.83
2022-07-26T02:14:33.554Z,21.81
2022-07-26T02:17:39.473Z,21.83
2022-07-26T02:20:45.405Z,21.82
2022-07-26T02:23:51.154Z,21.81
2022-07-26T02:26:58.467Z,21.83
2022-07-26T02:30:04.949Z,21.86
2022-07-26T02:33:10.916Z,21.84
2022-07-26T02:36:16.758Z,21.83
2022-07-26T02:39:23.177Z,21.83
2022-07-26T02:42:28.995Z,21.80
2022-07-26T02:45:35.642Z,21.80
2022-07-26T02:48:41.288Z,21.81
2022-07-26T02:51:47.552Z,21.78
2022-07-26T02:54:53.047Z,22.43
2022-07-26T02:57:59.177Z,22.58
2022-07-26T03:01:05.733Z,22.80
2022-07-26T03:04:12.507Z,23.31
2022-07-26T03:07:18.559Z,23.49
2022-07-26T03:10:24.513Z,23.83
2022-07-26T03:13:30.483Z,23.74
2022-07-26T03:16:36.566Z,23.81
2022-07-26T03:19:42.420Z,23.89
2022-07-26T03:22:48.631Z,23.47
2022-07-26T03:25:54.499Z,23.22
2022-07-26T03:29:00.474Z,22.90
2022-07-26T03:32:06.694Z,22.62
2022-07-26T03:35:13.144Z,22.34
2022-07-26T03:38:18.720Z,22.14
2022-07-26T03:41:24.829Z,21.92
2022-07-26T03:44:30.523Z,21.69
2022-07-26T03:47:36.369Z,21.62
2022-07-26T03:50:42.376Z,21.48
2022-07-26T03:53:48.444Z,21.47
2022-07-26T03:56:54.351Z,21.43
2022-07-26T04:00:00.351Z,21.37
2022-07-26T04:03:06.172Z,21.40
2022-07-26T04:06:11.939Z,21.41
2022-07-26T04:09:18.668Z,21.47
2022-07-26T04:12:25.137Z,21.46
2022-07-26T04:15:31.093Z,21.64
2022-07-26T04:18:40.356Z,21.84
2022-07-26T04:21:47.177Z,21.98
2022-07-26T04:24:56.747Z,22.04
2022-07-26T04:28:03.201Z,22.17
2022-07-26T04:31:09.072Z,22.35
2022-07-26T04:34:16.137Z,22.45
2022-07-26T04:37:22.510Z,22.49
2022-07-26T04:40:29.467Z,22.49
2022-07-26T04:43:35.294Z,22.46
2022-07-26T04:46:44.949Z,22.44
2022-07-26T04:49:52.060Z,22.42
2022-07-26T04:52:58.227Z,22.40
2022-07-26T04:56:04.057Z,22.34
2022-07-26T04:59:09.941Z,22.28
2022-07-26T05:02:16.337Z,22.27
2022-07-26T05:05:23.214Z,22.26
2022-07-26T05:08:29.337Z,22.26
2022-07-26T05:11:35.636Z,22.26
2022-07-26T05:14:42.755Z,22.18
2022-07-26T05:17:49.717Z,22.17
2022-07-26T05:20:57.784Z,22.13
2022-07-26T05:24:03.899Z,22.05
2022-07-26T05:27:13.941Z,21.97
2022-07-26T05:30:20.540Z,21.92
2022-07-26T05:33:27.787Z,21.80
2022-07-26T05:36:34.096Z,21.67
2022-07-26T05:39:41.343Z,21.54
2022-07-26T05:42:48.150Z,21.41
2022-07-26T05:45:58.367Z,21.35
2022-07-26T05:49:25.445Z,21.26
2022-07-26T05:52:31.838Z,21.15
2022-07-26T05:55:57.654Z,20.99
2022-07-26T05:59:03.843Z,20.92
2022-07-26T06:02:09.898Z,20.80
2022-07-26T06:05:16.556Z,20.68
2022-07-26T06:08:22.571Z,20.61
2022-07-26T06:11:28.370Z,20.58
2022-07-26T06:14:34.461Z,20.66
2022-07-26T06:17:43.231Z,20.67
2022-07-26T06:20:50.817Z,20.71
2022-07-26T06:23:57.182Z,20.85
2022-07-26T06:27:05.053Z,20.93
2022-07-26T06:30:12.056Z,20.94
2022-07-26T06:33:18.503Z,20.96
2022-07-26T06:36:28.504Z,21.10
2022-07-26T06:39:52.598Z,21.15
2022-07-26T06:43:02.705Z,21.20
2022-07-26T06:46:27.382Z,21.23
2022-07-26T06:49:34.493Z,21.22
2022-07-26T06:52:40.396Z,20.98
2022-07-26T06:55:46.239Z,20.91
2022-07-26T06:58:52.609Z,20.87
2022-07-26T07:02:00.711Z,20.97
2022-07-26T07:05:07.389Z,20.94
2022-07-26T07:08:13.269Z,20.68
2022-07-26T07:11:19.734Z,20.56
2022-07-26T07:14:26.289Z,20.52
2022-07-26T07:17:31.940Z,20.46
2022-07-26T07:20:37.866Z,20.42
2022-07-26T07:23:43.801Z,20.39
2022-07-26T07:26:49.752Z,20.33
2022-07-26T07:29:57.011Z,20.34
2022-07-26T07:33:03.646Z,20.25
2022-07-26T07:36:09.753Z,20.34
2022-07-26T07:39:17.616Z,20.48
2022-07-26T07:42:25.006Z,20.57
2022-07-26T07:45:30.789Z,20.74
2022-07-26T07:48:43.411Z,20.88
2022-07-26T07:52:07.364Z,20.93
2022-07-26T07:55:36.772Z,20.88
2022-07-26T07:58:41.482Z,20.88
2022-07-26T08:01:47.487Z,20.95
2022-07-26T08:04:54.832Z,21.04
2022-07-26T08:08:00.598Z,21.03
2022-07-26T08:11:07.943Z,21.13
2022-07-26T08:14:14.590Z,21.07
2022-07-26T08:17:20.912Z,21.03
2022-07-26T08:20:28.792Z,20.98
2022-07-26T08:23:37.177Z,20.81
2022-07-26T08:26:43.603Z,20.82
2022-07-26T08:29:49.505Z,20.57
2022-07-26T08:32:55.899Z,20.58
2022-07-26T08:36:02.188Z,20.41
2022-07-26T08:39:09.005Z,20.45
2022-07-26T08:42:22.467Z,20.47
2022-07-26T08:45:32.289Z,20.57
2022-07-26T08:48:38.744Z,20.62
2022-07-26T08:51:45.504Z,20.67
2022-07-26T08:54:52.748Z,20.76
2022-07-26T08:57:58.916Z,20.84
2022-07-26T09:01:07.431Z,20.85
2022-07-26T09:04:31.495Z,20.93
2022-07-26T09:07:52.659Z,21.05
2022-07-26T09:10:58.916Z,21.10
2022-07-26T09:14:06.781Z,21.09
2022-07-26T09:17:13.170Z,21.10
2022-07-26T09:20:25.951Z,21.06
2022-07-26T09:23:43.854Z,20.97
2022-07-26T09:27:09.674Z,20.94
2022-07-26T09:30:16.970Z,20.89
2022-07-26T09:33:22.966Z,20.85
2022-07-26T09:36:29.800Z,20.81
2022-07-26T09:39:59.351Z,20.85
2022-07-26T09:43:07.346Z,20.79
2022-07-26T09:46:17.807Z,20.90
2022-07-26T09:49:40.425Z,20.98
2022-07-26T09:53:10.731Z,21.01
2022-07-26T09:56:19.543Z,21.05
2022-07-26T09:59:27.446Z,21.09
2022-07-26T10:02:45.528Z,21.14
2022-07-26T10:05:56.751Z,21.14
2022-07-26T10:09:07.544Z,21.17
2022-07-26T10:12:18.416Z,21.18
2022-07-26T10:15:47.984Z,21.24
2022-07-26T10:18:56.555Z,21.28
2022-07-26T10:22:27.255Z,21.13
2022-07-26T10:25:35.434Z,21.21
2022-07-26T10:28:45.832Z,21.32
2022-07-26T10:32:12.534Z,21.37
2022-07-26T10:35:39.656Z,21.48
2022-07-26T10:39:02.973Z,21.48
2022-07-26T10:42:12.933Z,21.41
2022-07-26T10:45:25.575Z,21.45
2022-07-26T10:48:33.346Z,21.39
2022-07-26T10:51:43.914Z,21.33
2022-07-26T10:55:00.392Z,21.49
2022-07-26T10:58:06.870Z,21.61
2022-07-26T11:01:13.028Z,21.83
2022-07-26T11:04:27.472Z,22.03
2022-07-26T11:08:06.295Z,22.39
2022-07-26T11:11:14.455Z,22.67
2022-07-26T11:14:20.716Z,23.55
2022-07-26T11:17:29.447Z,23.78
2022-07-26T11:20:36.816Z,23.94
2022-07-26T11:23:52.080Z,24.37
2022-07-26T11:27:16.538Z,24.37
2022-07-26T11:30:24.175Z,24.20
2022-07-26T11:33:44.676Z,24.40
2022-07-26T11:36:53.232Z,25.05
2022-07-26T11:39:59.555Z,24.70
2022-07-26T11:43:05.636Z,24.66
2022-07-26T11:46:12.112Z,24.25
2022-07-26T11:49:52.354Z,24.19
2022-07-26T11:52:59.440Z,24.56
2022-07-26T11:56:24.085Z,25.15
2022-07-26T11:59:33.085Z,26.35
2022-07-26T12:02:40.634Z,26.03
2022-07-26T12:06:09.265Z,25.57
2022-07-26T12:09:47.368Z,26.16
2022-07-26T12:13:29.075Z,26.34
2022-07-26T12:16:59.838Z,26.59
2022-07-26T12:20:21.539Z,27.01
2022-07-26T12:23:29.208Z,26.04
2022-07-26T12:26:35.938Z,25.96
2022-07-26T12:29:54.655Z,25.94
2022-07-26T12:33:03.018Z,26.10
2022-07-26T12:36:27.788Z,26.18
2022-07-26T12:39:36.716Z,26.28
2022-07-26T12:42:51.234Z,26.18
2022-07-26T12:45:58.150Z,26.03
2022-07-26T12:49:04.751Z,26.27
2022-07-26T12:52:11.369Z,26.60
2022-07-26T12:55:19.887Z,26.71
2022-07-26T12:58:26.093Z,26.52
2022-07-26T13:01:34.013Z,26.38
2022-07-26T13:04:48.668Z,26.52
2022-07-26T13:08:05.976Z,26.15
2022-07-26T13:11:12.713Z,25.72
2022-07-26T13:14:19.000Z,25.83
2022-07-26T13:17:26.040Z,25.94
2022-07-26T13:20:32.108Z,26.07
2022-07-26T13:23:37.972Z,25.99
2022-07-26T13:26:45.798Z,25.87
2022-07-26T13:29:51.943Z,25.29
2022-07-26T13:32:58.776Z,25.28
2022-07-26T13:36:05.959Z,25.42
2022-07-26T13:39:12.662Z,25.20
2022-07-26T13:42:20.062Z,25.14
2022-07-26T13:45:29.066Z,25.52
2022-07-26T13:48:36.517Z,25.31
2022-07-26T13:52:01.257Z,25.71
2022-07-26T13:55:09.188Z,25.90
2022-07-26T13:58:15.436Z,26.10
2022-07-26T14:01:21.659Z,27.20
2022-07-26T14:04:49.991Z,28.40
2022-07-26T14:08:05.454Z,28.08
2022-07-26T14:11:12.452Z,27.76
2022-07-26T14:14:18.854Z,27.15
2022-07-26T14:17:26.699Z,26.50
2022-07-26T14:20:33.721Z,26.15
2022-07-26T14:23:39.936Z,26.18
2022-07-26T14:26:46.227Z,26.31
2022-07-26T14:30:06.716Z,26.51
2022-07-26T14:33:19.546Z,26.40
2022-07-26T14:36:25.782Z,26.26
2022-07-26T14:39:32.456Z,26.59
2022-07-26T14:42:40.898Z,27.14
2022-07-26T14:45:48.839Z,27.43
2022-07-26T14:48:55.245Z,26.22
2022-07-26T14:52:02.438Z,25.88
2022-07-26T14:55:10.794Z,25.57
2022-07-26T14:58:17.889Z,25.33
2022-07-26T15:01:24.614Z,25.27
2022-07-26T15:04:50.817Z,25.06
2022-07-26T15:08:18.589Z,24.85
2022-07-26T15:11:27.374Z,24.87
2022-07-26T15:14:34.676Z,24.75
2022-07-26T15:17:40.407Z,24.62
2022-07-26T15:20:46.591Z,24.50
2022-07-26T15:23:54.037Z,24.41
2022-07-26T15:27:00.304Z,24.44
2022-07-26T15:30:13.038Z,24.43
2022-07-26T15:33:36.438Z,24.42
2022-07-26T15:36:42.818Z,24.15
2022-07-26T15:39:49.028Z,23.99
2022-07-26T15:42:58.204Z,24.07
2022-07-26T15:46:04.679Z,23.89
2022-07-26T15:49:14.549Z,23.76
2022-07-26T15:52:22.158Z,23.74
2022-07-26T15:55:29.157Z,23.68
2022-07-26T15:58:35.353Z,23.60
2022-07-26T16:01:49.144Z,23.34
2022-07-26T16:04:55.398Z,23.26
2022-07-26T16:08:01.593Z,23.30
2022-07-26T16:11:08.243Z,23.46
2022-07-26T16:14:15.865Z,23.35
2022-07-26T16:17:28.358Z,23.39
2022-07-26T16:20:34.911Z,23.53
2022-07-26T16:23:41.932Z,23.82
2022-07-26T16:26:51.333Z,24.02
2022-07-26T16:30:07.356Z,24.15
2022-07-26T16:33:14.608Z,24.22
2022-07-26T16:36:20.643Z,24.38
2022-07-26T16:39:26.625Z,24.35
2022-07-26T16:42:34.978Z,24.29
2022-07-26T16:45:42.146Z,24.31
2022-07-26T16:48:48.300Z,24.18
2022-07-26T16:51:54.332Z,23.88
2022-07-26T16:55:00.938Z,23.88
2022-07-26T16:58:06.960Z,23.78
2022-07-26T17:01:13.553Z,23.83
2022-07-26T17:04:20.653Z,23.54
2022-07-26T17:07:26.581Z,23.47
2022-07-26T17:10:34.614Z,23.44
2022-07-26T17:13:41.075Z,23.37
2022-07-26T17:16:47.171Z,23.27
2022-07-26T17:19:53.826Z,23.19
2022-07-26T17:23:00.654Z,23.10
2022-07-26T17:26:08.688Z,23.08
2022-07-26T17:29:14.464Z,23.02
2022-07-26T17:32:21.123Z,22.77
2022-07-26T17:35:27.039Z,22.63
2022-07-26T17:38:33.072Z,22.64
2022-07-26T17:41:40.440Z,22.61
2022-07-26T17:44:46.552Z,22.55
2022-07-26T17:47:52.986Z,22.45
2022-07-26T17:50:58.802Z,22.43
2022-07-26T17:54:05.268Z,22.43
2022-07-26T17:57:11.270Z,22.26
2022-07-26T18:00:21.815Z,22.19
2022-07-26T18:03:27.955Z,22.08
2022-07-26T18:06:36.742Z,22.00
2022-07-26T18:09:43.110Z,22.02
2022-07-26T18:12:48.973Z,21.88
2022-07-26T18:15:56.487Z,21.74
2022-07-26T18:19:02.813Z,21.66
2022-07-26T18:22:08.850Z,21.56
2022-07-26T18:25:14.606Z,21.46
2022-07-26T18:28:21.377Z,21.45
2022-07-26T18:31:26.825Z,21.40
2022-07-26T18:34:32.447Z,21.34
2022-07-26T18:37:39.049Z,21.29
2022-07-26T18:40:45.674Z,21.21
2022-07-26T18:43:51.628Z,21.16
2022-07-26T18:46:57.911Z,21.12
2022-07-26T18:50:05.091Z,21.05
2022-07-26T18:53:11.558Z,20.93
2022-07-26T18:56:17.642Z,20.86
2022-07-26T18:59:24.066Z,20.79
2022-07-26T19:02:30.109Z,20.75
2022-07-26T19:05:36.534Z,20.70
2022-07-26T19:08:43.669Z,20.61
2022-07-26T19:11:50.138Z,20.54
2022-07-26T19:14:56.370Z,20.48
2022-07-26T19:18:25.053Z,20.39
2022-07-26T19:21:32.764Z,20.35
2022-07-26T19:24:38.921Z,20.33
2022-07-26T19:27:45.340Z,20.31
2022-07-26T19:30:51.497Z,20.24
2022-07-26T19:33:57.658Z,20.22
2022-07-26T19:37:04.568Z,20.17
2022-07-26T19:40:11.026Z,20.10
2022-07-26T19:43:17.278Z,20.07
2022-07-26T19:46:23.890Z,20.01
2022-07-26T19:49:30.514Z,19.97
2022-07-26T19:52:37.983Z,19.92
2022-07-26T19:55:50.276Z,19.88
2022-07-26T19:58:57.694Z,19.83
2022-07-26T20:02:04.423Z,19.83
2022-07-26T20:05:12.313Z,19.81
2022-07-26T20:08:18.562Z,19.78
2022-07-26T20:11:26.091Z,19.77
2022-07-26T20:14:32.512Z,19.78
2022-07-26T20:17:40.745Z,19.73
2022-07-26T20:20:46.900Z,19.75
2022-07-26T20:23:53.593Z,19.74
2022-07-26T20:27:01.315Z,19.71
2022-07-26T20:30:08.210Z,19.64
2022-07-26T20:33:17.523Z,19.63
2022-07-26T20:36:23.591Z,19.58
2022-07-26T20:39:30.482Z,19.55
2022-07-26T20:42:36.690Z,19.53
2022-07-26T20:45:48.120Z,19.48
2022-07-26T20:48:54.843Z,19.43
2022-07-26T20:52:05.357Z,19.40
2022-07-26T20:55:11.779Z,19.35
2022-07-26T20:58:18.982Z,19.31
2022-07-26T21:01:26.129Z,19.28
2022-07-26T21:04:33.403Z,19.26
2022-07-26T21:07:58.797Z,19.23
2022-07-26T21:11:08.858Z,19.19
2022-07-26T21:14:15.014Z,19.10
2022-07-26T21:17:21.191Z,19.01
2022-07-26T21:20:49.603Z,18.97
2022-07-26T21:23:55.540Z,18.94
2022-07-26T21:27:01.575Z,18.89
2022-07-26T21:30:09.225Z,18.88
2022-07-26T21:33:15.631Z,18.85
2022-07-26T21:36:21.661Z,18.76
2022-07-26T21:39:27.793Z,18.71
2022-07-26T21:42:33.782Z,18.62
2022-07-26T21:45:40.112Z,18.56
2022-07-26T21:48:46.456Z,18.49
2022-07-26T21:51:52.350Z,18.42
2022-07-26T21:54:58.603Z,18.37
2022-07-26T21:58:04.356Z,18.23
2022-07-26T22:01:12.941Z,18.13
2022-07-26T22:04:18.760Z,18.08
2022-07-26T22:07:25.136Z,17.96
2022-07-26T22:10:34.660Z,17.84
2022-07-26T22:13:40.950Z,17.81
2022-07-26T22:16:50.100Z,17.73
2022-07-26T22:19:56.708Z,17.70
2022-07-26T22:23:06.576Z,17.67
2022-07-26T22:26:15.517Z,17.60
2022-07-26T22:29:21.737Z,17.58
2022-07-26T22:32:28.735Z,17.50
2022-07-26T22:35:36.859Z,17.45
2022-07-26T22:38:43.324Z,17.36
2022-07-26T22:42:13.881Z,17.30
2022-07-26T22:45:18.577Z,17.25
2022-07-26T22:48:24.602Z,17.20
2022-07-26T22:51:30.488Z,17.15
2022-07-26T22:54:36.353Z,17.07
2022-07-26T22:57:43.787Z,17.03
2022-07-26T23:00:51.043Z,16.97
2022-07-26T23:03:58.119Z,16.88
2022-07-26T23:07:05.348Z,16.80
2022-07-26T23:10:12.525Z,16.73
2022-07-26T23:13:18.279Z,16.67
2022-07-26T23:16:24.483Z,16.57
2022-07-26T23:19:32.104Z,16.59
2022-07-26T23:22:39.364Z,16.58
2022-07-26T23:25:45.372Z,16.51
2022-07-26T23:28:53.690Z,16.48
2022-07-26T23:31:59.863Z,16.44
2022-07-26T23:35:07.370Z,16.36
2022-07-26T23:38:14.438Z,16.34
2022-07-26T23:41:20.840Z,16.28
2022-07-26T23:44:26.588Z,16.20
2022-07-26T23:47:33.890Z,16.16
2022-07-26T23:50:41.057Z,16.11
2022-07-26T23:53:47.459Z,16.09
2022-07-26T23:56:53.218Z,16.03
2022-07-26T23:59:59.298Z,15.91
